sensor_id;sensor_type;location;lat;lon;timestamp;temperature;humidity
16801;DHT22;8518;53.236;10.384;2023-07-30T00:00:03;15.40;99.90
16801;DHT22;8518;53.236;10.384;2023-07-30T00:02:35;15.40;99.90
16801;DHT22;8518;53.236;10.384;2023-07-30T00:05:07;15.40;99.90
16801;DHT22;8518;53.236;10.384;2023-07-30T00:14:29;15.50;99.90
16801;DHT22;8518;53.236;10.384;2023-07-30T00:20:16;15.50;99.90
16801;DHT22;8518;53.236;10.384;2023-07-30T00:22:43;15.50;99.90
16801;DHT22;8518;53.236;10.384;2023-07-30T00:25:12;15.50;99.90
16801;DHT22;8518;53.236;10.384;2023-07-30T00:27:43;15.50;99.90
16801;DHT22;8518;53.236;10.384;2023-07-30T00:30:12;15.50;99.90
16801;DHT22;8518;53.236;10.384;2023-07-30T00:32:37;16.00;99.90
16801;DHT22;8518;53.236;10.384;2023-07-30T00:35:08;15.60;99.90
16801;DHT22;8518;53.236;10.384;2023-07-30T00:37:34;15.80;99.90
16801;DHT22;8518;53.236;10.384;2023-07-30T00:40:03;15.60;99.90
16801;DHT22;8518;53.236;10.384;2023-07-30T00:42:29;15.60;99.90
16801;DHT22;8518;53.236;10.384;2023-07-30T00:44:55;15.60;99.90
16801;DHT22;8518;53.236;10.384;2023-07-30T00:47:21;15.60;99.90
16801;DHT22;8518;53.236;10.384;2023-07-30T00:49:50;16.20;99.90
16801;DHT22;8518;53.236;10.384;2023-07-30T00:52:18;15.60;99.90
16801;DHT22;8518;53.236;10.384;2023-07-30T00:54:45;15.60;99.90
16801;DHT22;8518;53.236;10.384;2023-07-30T01:00:35;15.50;99.90
16801;DHT22;8518;53.236;10.384;2023-07-30T01:03:00;15.50;99.90
16801;DHT22;8518;53.236;10.384;2023-07-30T01:08:48;15.50;99.90
16801;DHT22;8518;53.236;10.384;2023-07-30T01:14:39;15.40;99.90
16801;DHT22;8518;53.236;10.384;2023-07-30T01:20:45;15.40;99.90
16801;DHT22;8518;53.236;10.384;2023-07-30T01:23:10;15.30;99.90
16801;DHT22;8518;53.236;10.384;2023-07-30T01:29:00;15.30;99.90
16801;DHT22;8518;53.236;10.384;2023-07-30T01:31:33;15.30;99.90
16801;DHT22;8518;53.236;10.384;2023-07-30T01:34:03;15.30;99.90
16801;DHT22;8518;53.236;10.384;2023-07-30T01:39:51;15.40;99.90
16801;DHT22;8518;53.236;10.384;2023-07-30T01:42:17;15.40;99.90
16801;DHT22;8518;53.236;10.384;2023-07-30T01:44:43;15.70;99.90
16801;DHT22;8518;53.236;10.384;2023-07-30T01:50:31;15.30;99.90
16801;DHT22;8518;53.236;10.384;2023-07-30T01:52:56;15.30;99.90
16801;DHT22;8518;53.236;10.384;2023-07-30T01:58:44;15.40;99.90
16801;DHT22;8518;53.236;10.384;2023-07-30T02:01:10;15.40;99.90
16801;DHT22;8518;53.236;10.384;2023-07-30T02:03:40;15.50;99.90
16801;DHT22;8518;53.236;10.384;2023-07-30T02:09:28;15.50;99.90
16801;DHT22;8518;53.236;10.384;2023-07-30T02:11:54;15.50;99.90
16801;DHT22;8518;53.236;10.384;2023-07-30T02:14:20;15.60;99.90
16801;DHT22;8518;53.236;10.384;2023-07-30T02:20:08;15.70;99.90
16801;DHT22;8518;53.236;10.384;2023-07-30T02:22:36;15.70;99.90
16801;DHT22;8518;53.236;10.384;2023-07-30T02:25:02;15.70;99.90
16801;DHT22;8518;53.236;10.384;2023-07-30T02:27:27;15.60;99.90
16801;DHT22;8518;53.236;10.384;2023-07-30T02:29:53;15.70;99.90
16801;DHT22;8518;53.236;10.384;2023-07-30T02:32:19;16.10;99.90
16801;DHT22;8518;53.236;10.384;2023-07-30T02:34:44;15.40;99.90
16801;DHT22;8518;53.236;10.384;2023-07-30T02:40:32;15.70;99.90
16801;DHT22;8518;53.236;10.384;2023-07-30T02:42:57;15.80;99.90
16801;DHT22;8518;53.236;10.384;2023-07-30T02:48:45;15.80;99.90
16801;DHT22;8518;53.236;10.384;2023-07-30T02:51:11;15.80;99.90
16801;DHT22;8518;53.236;10.384;2023-07-30T02:53:36;15.70;99.90
16801;DHT22;8518;53.236;10.384;2023-07-30T02:59:24;15.70;99.90
16801;DHT22;8518;53.236;10.384;2023-07-30T03:01:53;15.70;99.90
16801;DHT22;8518;53.236;10.384;2023-07-30T03:04:18;15.60;99.90
16801;DHT22;8518;53.236;10.384;2023-07-30T03:10:06;15.60;99.90
16801;DHT22;8518;53.236;10.384;2023-07-30T03:12:32;15.60;99.90
16801;DHT22;8518;53.236;10.384;2023-07-30T03:15:00;15.60;99.90
16801;DHT22;8518;53.236;10.384;2023-07-30T03:17:26;15.60;99.90
16801;DHT22;8518;53.236;10.384;2023-07-30T03:19:51;15.60;99.90
16801;DHT22;8518;53.236;10.384;2023-07-30T03:22:17;14.90;99.90
16801;DHT22;8518;53.236;10.384;2023-07-30T03:24:43;15.70;99.90
16801;DHT22;8518;53.236;10.384;2023-07-30T03:30:30;15.50;99.90
16801;DHT22;8518;53.236;10.384;2023-07-30T03:32:56;15.30;99.90
16801;DHT22;8518;53.236;10.384;2023-07-30T03:38:44;15.30;99.90
16801;DHT22;8518;53.236;10.384;2023-07-30T03:41:10;15.60;99.90
16801;DHT22;8518;53.236;10.384;2023-07-30T03:43:38;15.60;99.90
16801;DHT22;8518;53.236;10.384;2023-07-30T03:49:27;15.30;99.90
16801;DHT22;8518;53.236;10.384;2023-07-30T03:51:53;15.30;99.90
16801;DHT22;8518;53.236;10.384;2023-07-30T03:54:19;15.30;99.90
16801;DHT22;8518;53.236;10.384;2023-07-30T04:00:07;15.30;99.90
16801;DHT22;8518;53.236;10.384;2023-07-30T04:02:34;15.20;99.90
16801;DHT22;8518;53.236;10.384;2023-07-30T04:04:59;15.20;99.90
16801;DHT22;8518;53.236;10.384;2023-07-30T04:07:25;15.40;99.90
16801;DHT22;8518;53.236;10.384;2023-07-30T04:09:50;15.20;99.90
16801;DHT22;8518;53.236;10.384;2023-07-30T04:12:16;15.20;99.90
16801;DHT22;8518;53.236;10.384;2023-07-30T04:14:43;15.30;99.90
16801;DHT22;8518;53.236;10.384;2023-07-30T04:20:30;15.30;99.90
16801;DHT22;8518;53.236;10.384;2023-07-30T04:22:56;15.40;99.90
16801;DHT22;8518;53.236;10.384;2023-07-30T04:28:44;15.30;99.90
16801;DHT22;8518;53.236;10.384;2023-07-30T04:31:10;16.10;99.90
16801;DHT22;8518;53.236;10.384;2023-07-30T04:33:36;15.50;99.90
16801;DHT22;8518;53.236;10.384;2023-07-30T04:39:24;15.50;99.90
16801;DHT22;8518;53.236;10.384;2023-07-30T04:41:49;15.60;99.90
16801;DHT22;8518;53.236;10.384;2023-07-30T04:44:15;15.60;99.90
16801;DHT22;8518;53.236;10.384;2023-07-30T04:50:03;15.60;99.90
16801;DHT22;8518;53.236;10.384;2023-07-30T04:52:29;15.70;99.90
16801;DHT22;8518;53.236;10.384;2023-07-30T04:54:54;15.80;99.90
16801;DHT22;8518;53.236;10.384;2023-07-30T04:57:20;15.80;99.90
16801;DHT22;8518;53.236;10.384;2023-07-30T04:59:46;15.80;99.90
16801;DHT22;8518;53.236;10.384;2023-07-30T05:02:11;15.90;99.90
16801;DHT22;8518;53.236;10.384;2023-07-30T05:04:37;15.80;99.90
16801;DHT22;8518;53.236;10.384;2023-07-30T05:10:24;16.00;99.90
16801;DHT22;8518;53.236;10.384;2023-07-30T05:12:50;15.90;99.90
16801;DHT22;8518;53.236;10.384;2023-07-30T05:15:19;16.00;99.90
16801;DHT22;8518;53.236;10.384;2023-07-30T05:17:44;16.10;99.90
16801;DHT22;8518;53.236;10.384;2023-07-30T05:20:10;16.10;99.90
16801;DHT22;8518;53.236;10.384;2023-07-30T05:22:36;16.10;99.90
16801;DHT22;8518;53.236;10.384;2023-07-30T05:25:01;16.20;99.90
16801;DHT22;8518;53.236;10.384;2023-07-30T05:27:27;16.30;99.90
16801;DHT22;8518;53.236;10.384;2023-07-30T05:29:54;16.30;99.90
16801;DHT22;8518;53.236;10.384;2023-07-30T05:32:23;16.40;99.90
16801;DHT22;8518;53.236;10.384;2023-07-30T05:34:49;16.40;99.90
16801;DHT22;8518;53.236;10.384;2023-07-30T05:40:36;16.50;99.90
16801;DHT22;8518;53.236;10.384;2023-07-30T05:43:02;16.70;99.90
16801;DHT22;8518;53.236;10.384;2023-07-30T05:48:49;16.90;99.90
16801;DHT22;8518;53.236;10.384;2023-07-30T05:51:15;17.10;99.90
16801;DHT22;8518;53.236;10.384;2023-07-30T05:53:41;17.00;99.90
16801;DHT22;8518;53.236;10.384;2023-07-30T05:59:29;17.10;99.90
16801;DHT22;8518;53.236;10.384;2023-07-30T06:01:56;17.00;99.90
16801;DHT22;8518;53.236;10.384;2023-07-30T06:04:22;17.00;99.90
16801;DHT22;8518;53.236;10.384;2023-07-30T06:10:10;17.40;99.90
16801;DHT22;8518;53.236;10.384;2023-07-30T06:15:58;17.10;99.90
16801;DHT22;8518;53.236;10.384;2023-07-30T06:18:23;17.10;99.90
16801;DHT22;8518;53.236;10.384;2023-07-30T06:20:49;17.20;99.90
16801;DHT22;8518;53.236;10.384;2023-07-30T06:23:15;17.20;99.90
16801;DHT22;8518;53.236;10.384;2023-07-30T06:29:03;17.40;99.90
16801;DHT22;8518;53.236;10.384;2023-07-30T06:31:28;17.60;99.90
16801;DHT22;8518;53.236;10.384;2023-07-30T06:33:54;17.70;99.90
16801;DHT22;8518;53.236;10.384;2023-07-30T06:39:43;17.90;99.90
16801;DHT22;8518;53.236;10.384;2023-07-30T06:45:30;18.10;99.90
16801;DHT22;8518;53.236;10.384;2023-07-30T06:47:56;18.00;99.90
16801;DHT22;8518;53.236;10.384;2023-07-30T06:50:22;18.30;99.90
16801;DHT22;8518;53.236;10.384;2023-07-30T06:52:47;18.30;99.90
16801;DHT22;8518;53.236;10.384;2023-07-30T06:55:13;18.50;99.90
16801;DHT22;8518;53.236;10.384;2023-07-30T06:57:41;18.60;99.90
16801;DHT22;8518;53.236;10.384;2023-07-30T07:00:10;18.90;99.90
16801;DHT22;8518;53.236;10.384;2023-07-30T07:02:36;18.70;99.90
16801;DHT22;8518;53.236;10.384;2023-07-30T07:05:02;18.70;99.90
16801;DHT22;8518;53.236;10.384;2023-07-30T07:07:28;18.90;99.90
16801;DHT22;8518;53.236;10.384;2023-07-30T07:09:53;19.10;99.90
16801;DHT22;8518;53.236;10.384;2023-07-30T07:12:19;19.20;99.90
16801;DHT22;8518;53.236;10.384;2023-07-30T07:14:45;19.40;99.90
16801;DHT22;8518;53.236;10.384;2023-07-30T07:20:33;19.40;99.90
16801;DHT22;8518;53.236;10.384;2023-07-30T07:22:58;19.50;99.90
16801;DHT22;8518;53.236;10.384;2023-07-30T07:28:46;19.70;99.90
16801;DHT22;8518;53.236;10.384;2023-07-30T07:31:11;19.90;99.90
16801;DHT22;8518;53.236;10.384;2023-07-30T07:33:40;20.00;99.90
16801;DHT22;8518;53.236;10.384;2023-07-30T07:39:32;19.80;99.90
16801;DHT22;8518;53.236;10.384;2023-07-30T07:42:00;19.70;99.90
16801;DHT22;8518;53.236;10.384;2023-07-30T07:44:26;19.90;99.90
16801;DHT22;8518;53.236;10.384;2023-07-30T07:50:14;20.20;99.90
16801;DHT22;8518;53.236;10.384;2023-07-30T07:52:41;20.60;99.90
16801;DHT22;8518;53.236;10.384;2023-07-30T07:55:07;20.80;99.90
16801;DHT22;8518;53.236;10.384;2023-07-30T07:57:32;21.00;99.90
16801;DHT22;8518;53.236;10.384;2023-07-30T07:59:59;21.30;99.90
16801;DHT22;8518;53.236;10.384;2023-07-30T08:02:24;21.50;99.90
16801;DHT22;8518;53.236;10.384;2023-07-30T08:04:50;21.80;99.90
16801;DHT22;8518;53.236;10.384;2023-07-30T08:10:39;22.10;99.90
16801;DHT22;8518;53.236;10.384;2023-07-30T08:13:05;22.20;99.90
16801;DHT22;8518;53.236;10.384;2023-07-30T08:18:53;22.00;99.90
16801;DHT22;8518;53.236;10.384;2023-07-30T08:21:21;21.90;99.90
16801;DHT22;8518;53.236;10.384;2023-07-30T08:23:47;21.80;99.90
16801;DHT22;8518;53.236;10.384;2023-07-30T08:29:35;21.70;99.90
16801;DHT22;8518;53.236;10.384;2023-07-30T08:32:00;21.80;99.90
16801;DHT22;8518;53.236;10.384;2023-07-30T08:34:26;21.60;99.90
16801;DHT22;8518;53.236;10.384;2023-07-30T08:40:29;21.80;99.90
16801;DHT22;8518;53.236;10.384;2023-07-30T08:42:54;22.00;99.90
16801;DHT22;8518;53.236;10.384;2023-07-30T08:48:43;22.10;99.90
16801;DHT22;8518;53.236;10.384;2023-07-30T08:51:08;22.70;99.90
16801;DHT22;8518;53.236;10.384;2023-07-30T08:53:38;22.80;99.90
16801;DHT22;8518;53.236;10.384;2023-07-30T08:59:31;23.50;99.90
16801;DHT22;8518;53.236;10.384;2023-07-30T09:01:58;23.30;99.90
16801;DHT22;8518;53.236;10.384;2023-07-30T09:04:28;23.30;99.90
16801;DHT22;8518;53.236;10.384;2023-07-30T09:10:17;23.30;99.90
16801;DHT22;8518;53.236;10.384;2023-07-30T09:12:42;23.30;99.90
16801;DHT22;8518;53.236;10.384;2023-07-30T09:15:08;23.30;99.90
16801;DHT22;8518;53.236;10.384;2023-07-30T09:17:37;23.60;99.90
16801;DHT22;8518;53.236;10.384;2023-07-30T09:20:04;23.40;99.90
16801;DHT22;8518;53.236;10.384;2023-07-30T09:22:32;22.80;99.90
16801;DHT22;8518;53.236;10.384;2023-07-30T09:25:08;22.90;99.90
16801;DHT22;8518;53.236;10.384;2023-07-30T09:27:34;23.10;99.90
16801;DHT22;8518;53.236;10.384;2023-07-30T09:30:01;23.10;99.90
16801;DHT22;8518;53.236;10.384;2023-07-30T09:32:32;23.20;99.90
16801;DHT22;8518;53.236;10.384;2023-07-30T09:35:08;23.50;99.90
16801;DHT22;8518;53.236;10.384;2023-07-30T09:37:41;24.00;99.90
16801;DHT22;8518;53.236;10.384;2023-07-30T09:40:08;23.70;99.90
16801;DHT22;8518;53.236;10.384;2023-07-30T09:42:35;23.40;99.90
16801;DHT22;8518;53.236;10.384;2023-07-30T09:45:05;23.40;99.90
16801;DHT22;8518;53.236;10.384;2023-07-30T09:47:32;23.10;99.90
16801;DHT22;8518;53.236;10.384;2023-07-30T09:50:01;22.90;99.90
16801;DHT22;8518;53.236;10.384;2023-07-30T09:52:30;22.70;99.90
16801;DHT22;8518;53.236;10.384;2023-07-30T09:54:58;22.60;99.90
16801;DHT22;8518;53.236;10.384;2023-07-30T09:57:24;22.90;99.90
16801;DHT22;8518;53.236;10.384;2023-07-30T09:59:50;23.20;99.90
16801;DHT22;8518;53.236;10.384;2023-07-30T10:02:19;23.30;99.90
16801;DHT22;8518;53.236;10.384;2023-07-30T10:04:49;23.40;99.90
16801;DHT22;8518;53.236;10.384;2023-07-30T10:10:38;23.20;99.90
16801;DHT22;8518;53.236;10.384;2023-07-30T10:13:06;23.20;99.90
16801;DHT22;8518;53.236;10.384;2023-07-30T10:18:57;22.80;99.90
16801;DHT22;8518;53.236;10.384;2023-07-30T10:21:27;22.50;99.90
16801;DHT22;8518;53.236;10.384;2023-07-30T10:24:04;22.60;99.90
16801;DHT22;8518;53.236;10.384;2023-07-30T10:30:15;22.40;99.90
16801;DHT22;8518;53.236;10.384;2023-07-30T10:32:57;22.20;99.90
16801;DHT22;8518;53.236;10.384;2023-07-30T10:38:46;21.80;99.90
16801;DHT22;8518;53.236;10.384;2023-07-30T10:41:13;21.60;99.90
16801;DHT22;8518;53.236;10.384;2023-07-30T10:43:48;21.50;99.90
16801;DHT22;8518;53.236;10.384;2023-07-30T10:49:39;21.30;99.90
16801;DHT22;8518;53.236;10.384;2023-07-30T10:52:14;21.40;99.90
16801;DHT22;8518;53.236;10.384;2023-07-30T10:54:41;21.40;99.90
16801;DHT22;8518;53.236;10.384;2023-07-30T11:00:29;21.40;99.90
16801;DHT22;8518;53.236;10.384;2023-07-30T11:02:57;21.20;99.90
16801;DHT22;8518;53.236;10.384;2023-07-30T11:08:45;21.00;99.90
16801;DHT22;8518;53.236;10.384;2023-07-30T11:14:32;21.40;99.90
16801;DHT22;8518;53.236;10.384;2023-07-30T11:20:25;22.10;99.90
16801;DHT22;8518;53.236;10.384;2023-07-30T11:22:54;22.40;99.90
16801;DHT22;8518;53.236;10.384;2023-07-30T11:25:19;22.10;99.90
16801;DHT22;8518;53.236;10.384;2023-07-30T11:27:49;22.00;99.90
16801;DHT22;8518;53.236;10.384;2023-07-30T11:30:18;21.80;99.90
16801;DHT22;8518;53.236;10.384;2023-07-30T11:32:45;21.70;99.90
16801;DHT22;8518;53.236;10.384;2023-07-30T11:35:16;21.50;99.90
16801;DHT22;8518;53.236;10.384;2023-07-30T11:37:42;21.30;99.90
16801;DHT22;8518;53.236;10.384;2023-07-30T11:40:09;21.30;99.90
16801;DHT22;8518;53.236;10.384;2023-07-30T11:42:36;21.70;99.90
16801;DHT22;8518;53.236;10.384;2023-07-30T11:48:26;22.40;99.90
16801;DHT22;8518;53.236;10.384;2023-07-30T11:50:52;22.90;99.90
16801;DHT22;8518;53.236;10.384;2023-07-30T11:53:18;23.00;99.90
16801;DHT22;8518;53.236;10.384;2023-07-30T11:59:06;23.60;99.90
16801;DHT22;8518;53.236;10.384;2023-07-30T12:01:34;25.90;99.90
16801;DHT22;8518;53.236;10.384;2023-07-30T12:04:02;25.40;99.90
16801;DHT22;8518;53.236;10.384;2023-07-30T12:09:50;23.40;99.90
16801;DHT22;8518;53.236;10.384;2023-07-30T12:12:18;23.50;99.90
16801;DHT22;8518;53.236;10.384;2023-07-30T12:14:52;23.70;99.90
16801;DHT22;8518;53.236;10.384;2023-07-30T12:20:40;26.90;99.90
16801;DHT22;8518;53.236;10.384;2023-07-30T12:23:06;27.80;99.90
16801;DHT22;8518;53.236;10.384;2023-07-30T12:28:54;26.80;99.90
16801;DHT22;8518;53.236;10.384;2023-07-30T12:31:20;26.50;99.90
16801;DHT22;8518;53.236;10.384;2023-07-30T12:33:45;26.30;99.90
16801;DHT22;8518;53.236;10.384;2023-07-30T12:39:33;26.70;99.90
16801;DHT22;8518;53.236;10.384;2023-07-30T12:41:59;26.60;99.90
16801;DHT22;8518;53.236;10.384;2023-07-30T12:44:24;26.10;99.90
16801;DHT22;8518;53.236;10.384;2023-07-30T12:50:12;24.40;99.90
16801;DHT22;8518;53.236;10.384;2023-07-30T12:52:38;24.20;99.90
16801;DHT22;8518;53.236;10.384;2023-07-30T12:55:04;24.20;99.90
16801;DHT22;8518;53.236;10.384;2023-07-30T12:57:30;24.30;99.90
16801;DHT22;8518;53.236;10.384;2023-07-30T12:59:57;24.00;99.90
16801;DHT22;8518;53.236;10.384;2023-07-30T13:02:23;23.40;99.90
16801;DHT22;8518;53.236;10.384;2023-07-30T13:04:48;23.20;99.90
16801;DHT22;8518;53.236;10.384;2023-07-30T13:10:36;23.90;99.90
16801;DHT22;8518;53.236;10.384;2023-07-30T13:13:02;24.50;99.90
16801;DHT22;8518;53.236;10.384;2023-07-30T13:18:50;24.70;99.90
16801;DHT22;8518;53.236;10.384;2023-07-30T13:21:17;25.00;99.90
16801;DHT22;8518;53.236;10.384;2023-07-30T13:23:43;24.50;99.90
16801;DHT22;8518;53.236;10.384;2023-07-30T13:29:33;23.80;99.90
16801;DHT22;8518;53.236;10.384;2023-07-30T13:31:59;23.70;99.90
16801;DHT22;8518;53.236;10.384;2023-07-30T13:34:24;23.50;99.90
16801;DHT22;8518;53.236;10.384;2023-07-30T13:40:12;22.70;99.90
16801;DHT22;8518;53.236;10.384;2023-07-30T13:46:00;21.90;99.90
16801;DHT22;8518;53.236;10.384;2023-07-30T13:48:25;21.60;99.90
16801;DHT22;8518;53.236;10.384;2023-07-30T13:50:51;21.40;99.90
16801;DHT22;8518;53.236;10.384;2023-07-30T13:53:17;21.40;99.90
16801;DHT22;8518;53.236;10.384;2023-07-30T13:59:05;21.10;99.90
16801;DHT22;8518;53.236;10.384;2023-07-30T14:04:56;20.90;99.90
16801;DHT22;8518;53.236;10.384;2023-07-30T14:07:25;20.90;99.90
16801;DHT22;8518;53.236;10.384;2023-07-30T14:09:51;20.60;99.90
16801;DHT22;8518;53.236;10.384;2023-07-30T14:12:16;20.30;99.90
16801;DHT22;8518;53.236;10.384;2023-07-30T14:14:42;19.80;99.90
16801;DHT22;8518;53.236;10.384;2023-07-30T14:20:30;18.90;99.90
16801;DHT22;8518;53.236;10.384;2023-07-30T14:22:55;18.40;99.90
16801;DHT22;8518;53.236;10.384;2023-07-30T14:28:43;17.90;99.90
16801;DHT22;8518;53.236;10.384;2023-07-30T14:31:08;17.70;99.90
16801;DHT22;8518;53.236;10.384;2023-07-30T14:33:35;17.50;99.90
16801;DHT22;8518;53.236;10.384;2023-07-30T14:39:23;17.50;99.90
16801;DHT22;8518;53.236;10.384;2023-07-30T14:45:11;18.50;99.90
16801;DHT22;8518;53.236;10.384;2023-07-30T14:47:37;19.20;99.90
16801;DHT22;8518;53.236;10.384;2023-07-30T14:50:08;19.60;99.90
16801;DHT22;8518;53.236;10.384;2023-07-30T14:52:33;19.60;99.90
16801;DHT22;8518;53.236;10.384;2023-07-30T14:54:59;19.80;99.90
16801;DHT22;8518;53.236;10.384;2023-07-30T14:57:25;19.70;99.90
16801;DHT22;8518;53.236;10.384;2023-07-30T14:59:53;19.40;99.90
16801;DHT22;8518;53.236;10.384;2023-07-30T15:02:18;19.20;99.90
16801;DHT22;8518;53.236;10.384;2023-07-30T15:04:44;19.00;99.90
16801;DHT22;8518;53.236;10.384;2023-07-30T15:10:32;18.70;99.90
16801;DHT22;8518;53.236;10.384;2023-07-30T15:12:57;18.60;99.90
16801;DHT22;8518;53.236;10.384;2023-07-30T15:18:45;18.20;99.90
16801;DHT22;8518;53.236;10.384;2023-07-30T15:21:12;18.20;99.90
16801;DHT22;8518;53.236;10.384;2023-07-30T15:23:38;18.20;99.90
16801;DHT22;8518;53.236;10.384;2023-07-30T15:29:26;18.20;99.90
16801;DHT22;8518;53.236;10.384;2023-07-30T15:35:16;18.60;99.90
16801;DHT22;8518;53.236;10.384;2023-07-30T15:37:42;18.90;99.90
16801;DHT22;8518;53.236;10.384;2023-07-30T15:40:09;19.10;99.90
16801;DHT22;8518;53.236;10.384;2023-07-30T15:42:34;19.50;99.90
16801;DHT22;8518;53.236;10.384;2023-07-30T15:45:01;19.60;99.90
16801;DHT22;8518;53.236;10.384;2023-07-30T15:47:26;19.60;99.90
16801;DHT22;8518;53.236;10.384;2023-07-30T15:50:01;19.70;99.90
16801;DHT22;8518;53.236;10.384;2023-07-30T15:52:27;19.50;99.90
16801;DHT22;8518;53.236;10.384;2023-07-30T15:54:56;19.60;99.90
16801;DHT22;8518;53.236;10.384;2023-07-30T15:57:26;19.50;99.90
16801;DHT22;8518;53.236;10.384;2023-07-30T15:59:52;19.60;99.90
16801;DHT22;8518;53.236;10.384;2023-07-30T16:02:17;19.60;99.90
16801;DHT22;8518;53.236;10.384;2023-07-30T16:04:43;19.40;99.90
16801;DHT22;8518;53.236;10.384;2023-07-30T16:10:31;19.30;99.90
16801;DHT22;8518;53.236;10.384;2023-07-30T16:12:56;19.20;99.90
16801;DHT22;8518;53.236;10.384;2023-07-30T16:18:52;19.20;99.90
16801;DHT22;8518;53.236;10.384;2023-07-30T16:21:18;19.40;99.90
16801;DHT22;8518;53.236;10.384;2023-07-30T16:23:47;19.40;99.90
16801;DHT22;8518;53.236;10.384;2023-07-30T16:29:35;19.50;99.90
16801;DHT22;8518;53.236;10.384;2023-07-30T16:35:24;19.20;99.90
16801;DHT22;8518;53.236;10.384;2023-07-30T16:37:51;18.70;99.90
16801;DHT22;8518;53.236;10.384;2023-07-30T16:40:16;18.30;99.90
16801;DHT22;8518;53.236;10.384;2023-07-30T16:42:42;17.90;99.90
16801;DHT22;8518;53.236;10.384;2023-07-30T16:45:13;17.50;99.90
16801;DHT22;8518;53.236;10.384;2023-07-30T16:47:39;17.20;99.90
16801;DHT22;8518;53.236;10.384;2023-07-30T16:50:05;16.80;99.90
16801;DHT22;8518;53.236;10.384;2023-07-30T16:52:34;16.60;99.90
16801;DHT22;8518;53.236;10.384;2023-07-30T16:54:59;16.50;99.90
16801;DHT22;8518;53.236;10.384;2023-07-30T16:57:25;16.20;99.90
16801;DHT22;8518;53.236;10.384;2023-07-30T16:59:50;16.00;99.90
16801;DHT22;8518;53.236;10.384;2023-07-30T17:02:19;15.60;99.90
16801;DHT22;8518;53.236;10.384;2023-07-30T17:04:49;15.60;99.90
16801;DHT22;8518;53.236;10.384;2023-07-30T17:07:15;15.50;99.90
16801;DHT22;8518;53.236;10.384;2023-07-30T17:09:41;15.30;99.90
16801;DHT22;8518;53.236;10.384;2023-07-30T17:12:08;15.20;99.90
16801;DHT22;8518;53.236;10.384;2023-07-30T17:14:34;15.10;99.90
16801;DHT22;8518;53.236;10.384;2023-07-30T17:20:22;15.20;99.90
16801;DHT22;8518;53.236;10.384;2023-07-30T17:22:47;15.20;99.90
16801;DHT22;8518;53.236;10.384;2023-07-30T17:25:13;15.30;99.90
16801;DHT22;8518;53.236;10.384;2023-07-30T17:27:38;15.60;99.90
16801;DHT22;8518;53.236;10.384;2023-07-30T17:30:04;15.30;99.90
16801;DHT22;8518;53.236;10.384;2023-07-30T17:32:30;15.50;99.90
16801;DHT22;8518;53.236;10.384;2023-07-30T17:34:55;15.60;99.90
16801;DHT22;8518;53.236;10.384;2023-07-30T17:37:21;15.80;99.90
16801;DHT22;8518;53.236;10.384;2023-07-30T17:39:47;15.90;99.90
16801;DHT22;8518;53.236;10.384;2023-07-30T17:42:14;16.00;99.90
16801;DHT22;8518;53.236;10.384;2023-07-30T17:44:39;15.90;99.90
16801;DHT22;8518;53.236;10.384;2023-07-30T17:50:31;15.90;99.90
16801;DHT22;8518;53.236;10.384;2023-07-30T17:52:57;15.70;99.90
16801;DHT22;8518;53.236;10.384;2023-07-30T17:58:44;15.50;99.90
16801;DHT22;8518;53.236;10.384;2023-07-30T18:01:10;15.50;99.90
16801;DHT22;8518;53.236;10.384;2023-07-30T18:03:39;15.40;99.90
16801;DHT22;8518;53.236;10.384;2023-07-30T18:09:27;15.40;99.90
16801;DHT22;8518;53.236;10.384;2023-07-30T18:15:15;15.40;99.90
16801;DHT22;8518;53.236;10.384;2023-07-30T18:17:41;15.30;99.90
16801;DHT22;8518;53.236;10.384;2023-07-30T18:20:09;15.60;99.90
16801;DHT22;8518;53.236;10.384;2023-07-30T18:22:36;15.50;99.90
16801;DHT22;8518;53.236;10.384;2023-07-30T18:25:02;15.60;99.90
16801;DHT22;8518;53.236;10.384;2023-07-30T18:27:28;15.50;99.90
16801;DHT22;8518;53.236;10.384;2023-07-30T18:29:53;15.50;99.90
16801;DHT22;8518;53.236;10.384;2023-07-30T18:32:19;15.50;99.90
16801;DHT22;8518;53.236;10.384;2023-07-30T18:34:44;15.50;99.90
16801;DHT22;8518;53.236;10.384;2023-07-30T18:40:36;15.50;99.90
16801;DHT22;8518;53.236;10.384;2023-07-30T18:43:08;15.50;99.90
16801;DHT22;8518;53.236;10.384;2023-07-30T18:48:56;15.40;99.90
16801;DHT22;8518;53.236;10.384;2023-07-30T18:51:22;15.40;99.90
16801;DHT22;8518;53.236;10.384;2023-07-30T18:53:47;15.40;99.90
16801;DHT22;8518;53.236;10.384;2023-07-30T18:59:35;15.50;99.90
16801;DHT22;8518;53.236;10.384;2023-07-30T19:02:01;15.60;99.90
16801;DHT22;8518;53.236;10.384;2023-07-30T19:04:26;15.50;99.90
16801;DHT22;8518;53.236;10.384;2023-07-30T19:10:17;15.60;99.90
16801;DHT22;8518;53.236;10.384;2023-07-30T19:12:45;15.70;99.90
16801;DHT22;8518;53.236;10.384;2023-07-30T19:15:10;15.70;99.90
16801;DHT22;8518;53.236;10.384;2023-07-30T19:17:36;15.70;99.90
16801;DHT22;8518;53.236;10.384;2023-07-30T19:20:02;15.70;99.90
16801;DHT22;8518;53.236;10.384;2023-07-30T19:22:34;15.80;99.90
16801;DHT22;8518;53.236;10.384;2023-07-30T19:24:59;15.80;99.90
16801;DHT22;8518;53.236;10.384;2023-07-30T19:27:25;15.80;99.90
16801;DHT22;8518;53.236;10.384;2023-07-30T19:29:53;15.80;99.90
16801;DHT22;8518;53.236;10.384;2023-07-30T19:32:22;15.80;99.90
16801;DHT22;8518;53.236;10.384;2023-07-30T19:34:50;15.80;99.90
16801;DHT22;8518;53.236;10.384;2023-07-30T19:40:38;15.70;99.90
16801;DHT22;8518;53.236;10.384;2023-07-30T19:43:04;15.60;99.90
16801;DHT22;8518;53.236;10.384;2023-07-30T19:48:52;15.60;99.90
16801;DHT22;8518;53.236;10.384;2023-07-30T19:51:23;15.50;99.90
16801;DHT22;8518;53.236;10.384;2023-07-30T19:53:49;15.50;99.90
16801;DHT22;8518;53.236;10.384;2023-07-30T19:59:50;15.30;99.90
16801;DHT22;8518;53.236;10.384;2023-07-30T20:02:17;15.30;99.90
16801;DHT22;8518;53.236;10.384;2023-07-30T20:04:43;15.30;99.90
16801;DHT22;8518;53.236;10.384;2023-07-30T20:10:35;15.10;99.90
16801;DHT22;8518;53.236;10.384;2023-07-30T20:13:00;15.10;99.90
16801;DHT22;8518;53.236;10.384;2023-07-30T20:18:50;15.00;99.90
16801;DHT22;8518;53.236;10.384;2023-07-30T20:21:19;15.60;99.90
16801;DHT22;8518;53.236;10.384;2023-07-30T20:23:55;14.80;99.90
16801;DHT22;8518;53.236;10.384;2023-07-30T20:29:42;14.70;99.90
16801;DHT22;8518;53.236;10.384;2023-07-30T20:32:08;14.70;99.90
16801;DHT22;8518;53.236;10.384;2023-07-30T20:34:40;14.60;99.90
16801;DHT22;8518;53.236;10.384;2023-07-30T20:40:28;14.50;99.90
16801;DHT22;8518;53.236;10.384;2023-07-30T20:42:58;14.60;99.90
16801;DHT22;8518;53.236;10.384;2023-07-30T20:48:51;14.40;99.90
16801;DHT22;8518;53.236;10.384;2023-07-30T20:51:17;14.40;99.90
16801;DHT22;8518;53.236;10.384;2023-07-30T20:53:43;14.50;99.90